Time;durP1;ratioP1;P1;durP2;ratioP2;P2;SDS_P1;SDS_P2;PMS_P1;PMS_P2;Temp;Humidity;BMP_temperature;BMP_pressure;BME280_temperature;BME280_humidity;BME280_pressure;Samples;Min_cycle;Max_cycle;Signal;HPM_P1;HPM_P2
2023/01/25 00:00:31;;;;;;;12.60;7.40;;;;;;;0.41;100.00;100321.77;106562;1262;139907;-74
2023/01/25 00:03:18;;;;;;;13.40;7.60;;;;;;;0.41;100.00;100315.89;106824;1281;22582;-73
2023/01/25 00:05:45;;;;;;;13.70;8.30;;;;;;;0.46;100.00;100322.55;106693;1277;138563;-74
2023/01/25 00:08:12;;;;;;;15.20;8.60;;;;;;;0.47;100.00;100324.25;107401;1281;139042;-73
2023/01/25 00:10:39;;;;;;;14.80;8.20;;;;;;;0.47;100.00;100321.58;106777;1281;22530;-74
2023/01/25 00:13:06;;;;;;;16.00;9.30;;;;;;;0.47;100.00;100319.25;106511;1261;139904;-73
2023/01/25 00:15:33;;;;;;;16.40;8.30;;;;;;;0.46;100.00;100318.30;106778;1274;22541;-74
2023/01/25 00:17:59;;;;;;;15.50;8.40;;;;;;;0.45;100.00;100313.00;109012;1281;138623;-74
2023/01/25 00:20:26;;;;;;;17.40;9.30;;;;;;;0.44;100.00;100314.70;106673;1260;139330;-74
2023/01/25 00:22:53;;;;;;;14.70;8.30;;;;;;;0.43;100.00;100311.99;106749;1263;25415;-73
2023/01/25 00:25:20;;;;;;;16.40;8.50;;;;;;;0.42;100.00;100315.59;106607;1280;138401;-74
2023/01/25 00:27:47;;;;;;;16.40;8.70;;;;;;;0.41;100.00;100317.34;107142;1278;22530;-74
2023/01/25 00:30:16;;;;;;;;;;;;;;;0.40;100.00;100313.30;106625;1281;139264;-74
2023/01/25 00:32:57;;;;;;;16.20;8.10;;;;;;;0.40;100.00;100315.23;106749;1261;25388;-73
2023/01/25 00:35:30;;;;;;;16.30;8.80;;;;;;;0.41;100.00;100320.89;106732;1281;26510;-73
2023/01/25 00:38:01;;;;;;;15.90;9.30;;;;;;;0.40;100.00;100317.75;106543;1274;138810;-73
2023/01/25 00:40:27;;;;;;;16.30;9.50;;;;;;;0.40;100.00;100316.29;106701;1281;25232;-73
2023/01/25 00:42:54;;;;;;;15.30;9.00;;;;;;;0.41;100.00;100311.95;106614;1273;139110;-74
2023/01/25 00:45:21;;;;;;;16.60;10.30;;;;;;;0.41;100.00;100308.02;106804;1281;25209;-73
2023/01/25 00:47:48;;;;;;;19.50;10.70;;;;;;;0.42;100.00;100306.91;106782;1280;138962;-73
2023/01/25 00:50:15;;;;;;;20.20;11.70;;;;;;;0.42;100.00;100308.14;106957;1280;139149;-73
2023/01/25 00:52:42;;;;;;;22.80;12.30;;;;;;;0.41;100.00;100306.08;106823;1272;22540;-73
2023/01/25 00:55:09;;;;;;;25.30;12.90;;;;;;;0.41;100.00;100297.61;106594;1281;138676;-73
2023/01/25 00:57:36;;;;;;;20.70;12.10;;;;;;;0.42;100.00;100288.27;106603;1282;23019;-73
2023/01/25 01:00:03;;;;;;;19.90;11.20;;;;;;;0.43;100.00;100291.89;106510;1282;138736;-73
2023/01/25 01:02:30;;;;;;;21.10;11.60;;;;;;;0.42;100.00;100288.07;106620;1262;139559;-74
2023/01/25 01:04:58;;;;;;;21.00;11.50;;;;;;;0.43;100.00;100286.73;106793;1281;22680;-73
2023/01/25 01:07:25;;;;;;;17.80;10.50;;;;;;;0.44;100.00;100282.56;106506;1278;140373;-73
2023/01/25 01:09:52;;;;;;;16.20;9.40;;;;;;;0.44;100.00;100287.24;106652;1282;24242;-73
2023/01/25 01:12:19;;;;;;;16.70;9.40;;;;;;;0.42;100.00;100287.02;106637;1262;138458;-73
2023/01/25 01:14:46;;;;;;;14.00;8.30;;;;;;;0.41;100.00;100282.10;106763;1281;23380;-73
2023/01/25 01:17:12;;;;;;;15.10;8.40;;;;;;;0.40;100.00;100273.96;106937;1281;26595;-73
2023/01/25 01:19:39;;;;;;;13.70;8.10;;;;;;;0.40;100.00;100272.88;106680;1281;138901;-73
2023/01/25 01:22:07;;;;;;;12.10;7.10;;;;;;;0.38;100.00;100264.62;106807;1268;26737;-74
2023/01/25 01:24:34;;;;;;;13.40;7.00;;;;;;;0.37;100.00;100259.17;106468;1280;139526;-73
2023/01/25 01:27:03;;;;;;;11.20;6.20;;;;;;;0.35;100.00;100258.08;106624;1281;25407;-73
2023/01/25 01:29:30;;;;;;;10.50;7.20;;;;;;;0.35;100.00;100245.98;106609;1281;25424;-73
2023/01/25 01:31:56;;;;;;;10.80;6.50;;;;;;;0.36;100.00;100241.06;106374;1281;139225;-73
2023/01/25 01:34:25;;;;;;;10.80;6.50;;;;;;;0.35;100.00;100240.05;106669;1262;24201;-73
2023/01/25 01:36:53;;;;;;;12.10;6.20;;;;;;;0.35;100.00;100235.23;106453;1281;138538;-73
2023/01/25 01:39:20;;;;;;;10.40;6.20;;;;;;;0.36;100.00;100235.77;107452;1281;22867;-73
2023/01/25 01:41:47;;;;;;;9.90;6.10;;;;;;;0.36;100.00;100236.83;106531;1281;138538;-81
2023/01/25 01:44:17;;;;;;;12.30;6.40;;;;;;;0.35;100.00;100238.30;106369;1267;139541;-73
2023/01/25 01:46:53;;;;;;;9.70;5.40;;;;;;;0.33;100.00;100236.48;107126;1275;22613;-73
2023/01/25 01:49:27;;;;;;;8.40;5.50;;;;;;;0.33;100.00;100230.80;107735;1273;138702;-73
2023/01/25 01:52:08;;;;;;;9.90;5.50;;;;;;;0.33;100.00;100230.10;106698;1282;25288;-73
2023/01/25 01:54:44;;;;;;;10.10;5.10;;;;;;;0.32;100.00;100225.00;106384;1265;138449;-73
2023/01/25 01:57:15;;;;;;;10.40;6.30;;;;;;;0.32;100.00;100220.20;106906;1281;22543;-73
2023/01/25 01:59:54;;;;;;;11.50;5.70;;;;;;;0.33;100.00;100213.48;107192;1281;24106;-73
2023/01/25 02:02:25;;;;;;;9.70;5.60;;;;;;;0.34;100.00;100211.41;106844;1281;139734;-73
2023/01/25 02:04:55;;;;;;;11.00;6.30;;;;;;;0.33;100.00;100204.19;106667;1281;26207;-73
2023/01/25 02:07:29;;;;;;;11.30;6.50;;;;;;;0.33;100.00;100199.51;106611;1274;138544;-74
2023/01/25 02:09:58;;;;;;;10.80;6.40;;;;;;;0.34;100.00;100195.36;106796;1281;22570;-73
2023/01/25 02:12:26;;;;;;;10.60;6.70;;;;;;;0.35;100.00;100193.30;106494;1281;138907;-73
2023/01/25 02:14:53;;;;;;;11.30;6.30;;;;;;;0.35;100.00;100198.45;106733;1263;25352;-73
2023/01/25 02:17:36;;;;;;;12.30;7.00;;;;;;;0.36;100.00;100200.50;106762;1281;22558;-73
2023/01/25 02:20:22;;;;;;;10.70;6.30;;;;;;;0.36;100.00;100200.69;106560;1282;139422;-73
2023/01/25 02:22:51;;;;;;;10.00;5.90;;;;;;;0.37;100.00;100195.03;107656;1280;24403;-73
2023/01/25 02:25:19;;;;;;;11.60;6.60;;;;;;;0.38;100.00;100196.90;106548;1274;138934;-73
2023/01/25 02:28:02;;;;;;;13.00;7.20;;;;;;;0.39;100.00;100195.12;106586;1281;24279;-73
2023/01/25 02:30:30;;;;;;;9.90;5.70;;;;;;;0.40;100.00;100200.68;106412;1281;139143;-73
2023/01/25 02:32:56;;;;;;;10.60;6.50;;;;;;;0.39;100.00;100200.63;106625;1281;24362;-73
2023/01/25 02:35:35;;;;;;;10.60;5.90;;;;;;;0.40;100.00;100201.67;106722;1271;24115;-73
2023/01/25 02:38:03;;;;;;;9.30;5.70;;;;;;;0.38;100.00;100204.11;106476;1282;139566;-73
2023/01/25 02:40:35;;;;;;;8.70;5.90;;;;;;;0.35;100.00;100205.21;106573;1282;23272;-73
2023/01/25 02:43:02;;;;;;;9.40;5.80;;;;;;;0.35;100.00;100204.56;106914;1274;140648;-73
2023/01/25 02:45:29;;;;;;;9.90;5.40;;;;;;;0.34;100.00;100203.04;106624;1265;24170;-73
2023/01/25 02:47:56;;;;;;;11.30;5.30;;;;;;;0.33;100.00;100201.33;106559;1282;138626;-73
2023/01/25 02:50:22;;;;;;;10.60;6.20;;;;;;;0.32;100.00;100200.38;106519;1283;139134;-73
2023/01/25 02:52:49;;;;;;;10.00;6.40;;;;;;;0.31;100.00;100197.77;106579;1272;23950;-73
2023/01/25 02:55:16;;;;;;;12.00;6.40;;;;;;;0.31;100.00;100198.65;106318;1262;139118;-73
2023/01/25 02:57:44;;;;;;;12.40;6.90;;;;;;;0.31;100.00;100193.80;106539;1282;25268;-73
2023/01/25 03:00:12;;;;;;;12.00;7.20;;;;;;;0.32;100.00;100190.50;106567;1281;138740;-73
2023/01/25 03:02:39;;;;;;;12.40;6.70;;;;;;;0.33;100.00;100190.11;106595;1279;138494;-73
2023/01/25 03:05:06;;;;;;;12.30;7.40;;;;;;;0.33;100.00;100187.94;106703;1274;22640;-73
2023/01/25 03:07:33;;;;;;;13.00;7.50;;;;;;;0.34;100.00;100191.64;106517;1259;139034;-73
2023/01/25 03:10:00;;;;;;;11.30;6.60;;;;;;;0.34;100.00;100192.61;106852;1281;22542;-73
2023/01/25 03:12:29;;;;;;;11.80;6.40;;;;;;;0.34;100.00;100197.67;106788;1281;138725;-73
2023/01/25 03:14:56;;;;;;;12.80;7.00;;;;;;;0.32;100.00;100191.94;106726;1262;25297;-73
2023/01/25 03:17:24;;;;;;;12.40;7.00;;;;;;;0.32;100.00;100191.56;106737;1281;22550;-73
2023/01/25 03:19:52;;;;;;;13.40;7.30;;;;;;;0.33;100.00;100196.32;106479;1281;138652;-73
2023/01/25 03:22:19;;;;;;;14.30;7.10;;;;;;;0.33;100.00;100200.61;106725;1279;22553;-73
2023/01/25 03:24:46;;;;;;;11.80;6.50;;;;;;;0.33;100.00;100193.10;106910;1263;140073;-73
2023/01/25 03:27:15;;;;;;;12.20;7.00;;;;;;;0.34;100.00;100186.98;106630;1282;25488;-73
2023/01/25 03:30:15;;;;;;;12.20;6.80;;;;;;;0.35;100.00;100194.53;106487;1282;139663;-73
2023/01/25 03:32:42;;;;;;;10.70;7.10;;;;;;;0.33;100.00;100185.57;106463;1283;138462;-73
2023/01/25 03:35:11;;;;;;;14.10;6.90;;;;;;;0.33;100.00;100185.40;106557;1282;25261;-73
2023/01/25 03:37:38;;;;;;;12.40;7.00;;;;;;;0.34;100.00;100181.95;106490;1281;139020;-73
2023/01/25 03:40:06;;;;;;;10.40;6.50;;;;;;;0.36;100.00;100182.85;106643;1281;22536;-73
2023/01/25 03:42:33;;;;;;;15.90;7.40;;;;;;;0.35;100.00;100178.64;106556;1282;138519;-73
2023/01/25 03:45:01;;;;;;;13.40;7.60;;;;;;;0.36;100.00;100177.68;106705;1260;24282;-73
2023/01/25 03:47:28;;;;;;;14.10;7.90;;;;;;;0.35;100.00;100173.84;106639;1281;22998;-73
2023/01/25 03:49:55;;;;;;;13.70;7.10;;;;;;;0.35;100.00;100173.48;106504;1271;138477;-73
2023/01/25 03:52:24;;;;;;;12.70;6.70;;;;;;;0.35;100.00;100170.21;106933;1280;24560;-73
2023/01/25 03:54:51;;;;;;;10.30;6.70;;;;;;;0.35;100.00;100173.14;106503;1281;140109;-73
2023/01/25 03:57:18;;;;;;;15.30;7.60;;;;;;;0.35;100.00;100170.82;106666;1268;22599;-73
2023/01/25 03:59:56;;;;;;;12.90;7.10;;;;;;;0.35;100.00;100165.72;106632;1273;22569;-73
2023/01/25 04:02:23;;;;;;;13.30;7.40;;;;;;;0.37;100.00;100165.58;106477;1281;138505;-73
2023/01/25 04:05:05;;;;;;;14.00;7.20;;;;;;;0.37;100.00;100167.36;106626;1281;25593;-73
2023/01/25 04:07:33;;;;;;;12.30;7.70;;;;;;;0.36;100.00;100156.52;106390;1274;138535;-73
2023/01/25 04:10:00;;;;;;;12.30;7.20;;;;;;;0.38;100.00;100152.32;106613;1281;26056;-73
2023/01/25 04:12:27;;;;;;;13.70;8.30;;;;;;;0.38;100.00;100152.33;106446;1281;138931;-73
2023/01/25 04:14:54;;;;;;;13.90;7.60;;;;;;;0.38;100.00;100151.91;106718;1277;22611;-73
2023/01/25 04:17:22;;;;;;;14.20;7.10;;;;;;;0.38;100.00;100149.98;106957;1263;22685;-73
2023/01/25 04:19:53;;;;;;;15.20;8.20;;;;;;;0.36;100.00;100147.30;106727;1278;140204;-73
2023/01/25 04:22:22;;;;;;;;;;;;;;;0.36;100.00;100145.36;107336;1281;25271;-73
2023/01/25 04:24:50;;;;;;;14.10;7.70;;;;;;;0.36;100.00;100141.41;106641;1281;125314;-74
2023/01/25 04:27:17;;;;;;;14.90;7.50;;;;;;;0.38;100.00;100137.64;106814;1263;25224;-73
2023/01/25 04:29:53;;;;;;;13.80;7.50;;;;;;;0.39;100.00;100136.11;106723;1281;22725;-73
2023/01/25 04:32:20;;;;;;;15.70;8.00;;;;;;;0.41;100.00;100138.09;106495;1279;139923;-73
2023/01/25 04:34:47;;;;;;;12.00;6.70;;;;;;;0.41;100.00;100135.80;106977;1279;192908;-74
2023/01/25 04:37:16;;;;;;;15.80;8.20;;;;;;;0.41;100.00;100137.55;108630;1262;139252;-73
2023/01/25 04:39:56;;;;;;;15.10;7.30;;;;;;;0.42;100.00;100140.69;108920;1281;22559;-74
2023/01/25 04:42:23;;;;;;;12.90;7.60;;;;;;;0.44;100.00;100138.17;106546;1281;140367;-73
2023/01/25 04:44:53;;;;;;;12.70;7.60;;;;;;;0.46;100.00;100136.27;106692;1280;25601;-73
2023/01/25 04:47:20;;;;;;;13.60;7.70;;;;;;;0.47;100.00;100134.84;107520;1271;22233;-73
2023/01/25 04:49:47;;;;;;;13.00;7.90;;;;;;;0.48;100.00;100133.50;106855;1276;139390;-74
2023/01/25 04:52:16;;;;;;;15.10;7.90;;;;;;;0.47;100.00;100134.17;106751;1280;22633;-73
2023/01/25 04:54:43;;;;;;;11.90;6.80;;;;;;;0.47;100.00;100130.76;106594;1281;138590;-73
2023/01/25 04:57:12;;;;;;;15.50;8.80;;;;;;;0.43;100.00;100129.35;106733;1270;22632;-73
2023/01/25 04:59:39;;;;;;;13.50;8.00;;;;;;;0.39;100.00;100125.23;107788;1281;22574;-73
2023/01/25 05:02:06;;;;;;;15.90;8.50;;;;;;;0.38;100.00;100121.01;107264;1281;139672;-74
2023/01/25 05:04:33;;;;;;;14.60;7.80;;;;;;;0.38;100.00;100121.95;108168;1273;23213;-74
2023/01/25 05:07:00;;;;;;;13.90;7.50;;;;;;;0.39;100.00;100115.91;107025;1263;139729;-76
2023/01/25 05:09:27;;;;;;;13.30;8.20;;;;;;;0.41;100.00;100114.55;107052;1276;24248;-74
2023/01/25 05:11:54;;;;;;;15.40;7.90;;;;;;;0.41;100.00;100111.01;106735;1272;22569;-73
2023/01/25 05:14:26;;;;;;;16.10;8.00;;;;;;;0.42;100.00;100117.13;106658;1281;138332;-73
2023/01/25 05:16:53;;;;;;;13.40;8.00;;;;;;;0.43;100.00;100115.81;106779;1264;22971;-73
2023/01/25 05:19:20;;;;;;;14.90;8.40;;;;;;;0.45;100.00;100116.31;106545;1281;138702;-73
2023/01/25 05:21:58;;;;;;;15.50;7.60;;;;;;;0.47;100.00;100113.30;106656;1281;22552;-73
2023/01/25 05:24:32;;;;;;;14.00;6.40;;;;;;;0.46;100.00;100115.84;106566;1273;140445;-73
2023/01/25 05:27:02;;;;;;;13.40;7.40;;;;;;;0.47;100.00;100114.92;106741;1260;24852;-73
2023/01/25 05:29:56;;;;;;;12.50;7.60;;;;;;;0.47;100.00;100109.35;106679;1281;22535;-73
2023/01/25 05:32:38;;;;;;;11.60;7.00;;;;;;;0.47;100.00;100109.02;106614;1281;138836;-73
2023/01/25 05:35:06;;;;;;;15.10;8.40;;;;;;;0.47;100.00;100108.39;107772;1279;22563;-74
2023/01/25 05:37:33;;;;;;;13.00;7.10;;;;;;;0.47;100.00;100107.34;106912;1263;139940;-73
2023/01/25 05:40:07;;;;;;;15.40;7.50;;;;;;;0.47;100.00;100110.23;108634;1280;23367;-74
2023/01/25 05:42:36;;;;;;;15.00;7.60;;;;;;;0.44;100.00;100110.27;106529;1281;139098;-74
2023/01/25 05:45:04;;;;;;;14.30;7.60;;;;;;;0.43;100.00;100104.69;106782;1275;22533;-73
2023/01/25 05:47:33;;;;;;;15.30;8.40;;;;;;;0.43;100.00;100107.60;106791;1279;22538;-73
2023/01/25 05:50:00;;;;;;;15.60;8.70;;;;;;;0.43;100.00;100107.58;106622;1281;138917;-73
2023/01/25 05:52:37;;;;;;;17.20;9.20;;;;;;;0.42;100.00;100107.82;106702;1279;22538;-74
2023/01/25 05:55:05;;;;;;;18.90;9.70;;;;;;;0.41;100.00;100107.54;106470;1281;140696;-73
2023/01/25 05:57:32;;;;;;;19.20;10.80;;;;;;;0.41;100.00;100111.09;106686;1266;23978;-74
2023/01/25 05:59:59;;;;;;;17.40;9.00;;;;;;;0.40;100.00;100109.80;106597;1273;22582;-73
2023/01/25 06:02:26;;;;;;;16.40;9.10;;;;;;;0.39;100.00;100110.08;106357;1282;138629;-73
2023/01/25 06:04:53;;;;;;;19.00;9.60;;;;;;;0.38;100.00;100113.85;106667;1282;22545;-73
2023/01/25 06:07:20;;;;;;;21.80;10.20;;;;;;;0.37;100.00;100117.77;106514;1259;139298;-73
2023/01/25 06:09:47;;;;;;;21.90;10.50;;;;;;;0.37;100.00;100115.02;106757;1266;22583;-73
2023/01/25 06:12:15;;;;;;;18.40;9.10;;;;;;;0.37;100.00;100116.95;106858;1273;138746;-73
2023/01/25 06:14:41;;;;;;;20.50;10.00;;;;;;;0.38;100.00;100116.02;107870;1281;139474;-73
2023/01/25 06:17:08;;;;;;;19.60;9.80;;;;;;;0.37;100.00;100112.30;106942;1281;24932;-73
2023/01/25 06:19:54;;;;;;;20.60;10.70;;;;;;;0.38;100.00;100112.47;106534;1263;140051;-73
2023/01/25 06:22:34;;;;;;;21.90;10.30;;;;;;;0.37;100.00;100108.05;106961;1281;23032;-73
2023/01/25 06:25:01;;;;;;;21.80;9.60;;;;;;;0.40;100.00;100111.23;106695;1281;139086;-74
2023/01/25 06:27:28;;;;;;;19.70;9.60;;;;;;;0.41;100.00;100110.27;106760;1273;25278;-73
2023/01/25 06:29:55;;;;;;;22.00;11.30;;;;;;;0.43;100.00;100107.00;106717;1257;22582;-73
2023/01/25 06:32:24;;;;;;;23.10;10.90;;;;;;;0.43;100.00;100106.64;106503;1281;138574;-73
2023/01/25 06:34:51;;;;;;;19.70;10.50;;;;;;;0.41;100.00;100103.25;106856;1273;22576;-73
2023/01/25 06:37:21;;;;;;;22.00;11.20;;;;;;;0.40;100.00;100100.17;106575;1281;138946;-73
2023/01/25 06:39:48;;;;;;;21.20;10.90;;;;;;;0.40;100.00;100096.02;107210;1264;22530;-73
2023/01/25 06:42:16;;;;;;;19.50;10.60;;;;;;;0.41;100.00;100094.89;106889;1281;138923;-73
2023/01/25 06:44:42;;;;;;;25.20;12.10;;;;;;;0.42;100.00;100095.37;106744;1278;138498;-73
2023/01/25 06:47:11;;;;;;;21.40;10.30;;;;;;;0.43;100.00;100093.46;106646;1260;25493;-73
2023/01/25 06:49:38;;;;;;;20.60;9.70;;;;;;;0.43;100.00;100089.12;106417;1258;138549;-73
2023/01/25 06:52:05;;;;;;;18.30;9.80;;;;;;;0.44;100.00;100088.53;106795;1281;22552;-73
2023/01/25 06:54:32;;;;;;;18.40;10.60;;;;;;;0.43;100.00;100092.54;106425;1280;139341;-73
2023/01/25 06:56:59;;;;;;;20.50;10.00;;;;;;;0.42;100.00;100089.80;107012;1277;25313;-73
2023/01/25 06:59:26;;;;;;;22.40;10.90;;;;;;;0.42;100.00;100090.49;106622;1281;23185;-73
2023/01/25 07:01:55;;;;;;;22.00;11.20;;;;;;;0.43;100.00;100083.28;106592;1281;138589;-73
2023/01/25 07:04:21;;;;;;;19.90;10.00;;;;;;;0.41;100.00;100086.27;106738;1273;23985;-73
2023/01/25 07:06:48;;;;;;;17.80;9.70;;;;;;;0.41;100.00;100084.91;106473;1270;138878;-73
2023/01/25 07:09:15;;;;;;;20.30;9.20;;;;;;;0.40;100.00;100083.73;108100;1258;22646;-74
2023/01/25 07:11:42;;;;;;;18.20;9.60;;;;;;;0.39;100.00;100087.88;107403;1270;22593;-73
2023/01/25 07:14:09;;;;;;;17.50;8.80;;;;;;;0.38;100.00;100083.71;106623;1273;138400;-74
2023/01/25 07:16:37;;;;;;;15.60;8.70;;;;;;;0.37;100.00;100079.70;107198;1278;22547;-73
2023/01/25 07:19:10;;;;;;;16.80;9.00;;;;;;;0.39;100.00;100079.36;106805;1273;140565;-74
2023/01/25 07:21:37;;;;;;;16.50;8.40;;;;;;;0.40;100.00;100077.50;106935;1274;23804;-73
2023/01/25 07:24:04;;;;;;;20.40;9.20;;;;;;;0.41;100.00;100075.77;107311;1272;22404;-73
2023/01/25 07:26:31;;;;;;;17.20;9.20;;;;;;;0.41;100.00;100076.09;107368;1273;139730;-73
2023/01/25 07:28:58;;;;;;;22.70;10.00;;;;;;;0.42;100.00;100080.88;107037;1273;22540;-73
2023/01/25 07:31:26;;;;;;;22.00;10.60;;;;;;;0.41;100.00;100082.69;107068;1262;139494;-73
2023/01/25 07:33:56;;;;;;;19.50;9.30;;;;;;;0.43;100.00;100085.90;107183;1273;24252;-73
2023/01/25 07:36:24;;;;;;;19.10;8.50;;;;;;;0.44;100.00;100082.23;106492;1273;138684;-73
2023/01/25 07:38:55;;;;;;;15.80;8.00;;;;;;;0.45;100.00;100080.02;106904;1274;22546;-74
2023/01/25 07:41:24;;;;;;;15.40;8.20;;;;;;;0.46;100.00;100075.27;106711;1271;25274;-73
2023/01/25 07:43:52;;;;;;;14.30;8.00;;;;;;;0.47;100.00;100064.65;106564;1276;139698;-73
2023/01/25 07:46:29;;;;;;;16.20;7.70;;;;;;;0.49;100.00;100053.20;106631;1282;25540;-73
2023/01/25 07:48:57;;;;;;;15.00;8.40;;;;;;;0.49;100.00;100049.42;106499;1273;139335;-73
2023/01/25 07:51:29;;;;;;;15.70;8.40;;;;;;;0.49;100.00;100046.63;107210;1273;22535;-73
2023/01/25 07:53:59;;;;;;;20.20;10.10;;;;;;;0.48;100.00;100050.48;108815;1278;22543;-73
2023/01/25 07:56:29;;;;;;;17.30;9.10;;;;;;;0.47;100.00;100048.71;106655;1270;139898;-73
2023/01/25 07:58:57;;;;;;;17.00;8.50;;;;;;;0.49;100.00;100048.19;106996;1278;25081;-74
2023/01/25 08:01:26;;;;;;;16.00;8.10;;;;;;;0.52;100.00;100046.86;107986;1262;138602;-73
2023/01/25 08:03:55;;;;;;;17.20;9.30;;;;;;;0.52;100.00;100044.49;108283;1274;22655;-73
2023/01/25 08:06:26;;;;;;;20.00;8.50;;;;;;;0.53;100.00;100041.92;107087;1274;139066;-74
2023/01/25 08:08:54;;;;;;;21.40;9.90;;;;;;;0.53;100.00;100045.54;108353;1273;22579;-76
2023/01/25 08:11:29;;;;;;;20.70;9.70;;;;;;;0.55;100.00;100046.24;109832;1260;23286;-74
2023/01/25 08:13:56;;;;;;;19.30;8.80;;;;;;;0.58;100.00;100045.79;108554;1273;139263;-73
2023/01/25 08:16:25;;;;;;;14.70;7.90;;;;;;;0.62;100.00;100043.79;108153;1266;25375;-74
2023/01/25 08:18:55;;;;;;;18.90;9.20;;;;;;;0.65;100.00;100035.29;106717;1277;138935;-73
2023/01/25 08:21:24;;;;;;;14.80;8.10;;;;;;;0.70;100.00;100037.16;109071;1264;22407;-73
2023/01/25 08:23:51;;;;;;;15.20;8.60;;;;;;;0.74;100.00;100031.81;109092;1276;22277;-73
2023/01/25 08:26:18;;;;;;;16.70;7.70;;;;;;;0.75;100.00;100028.48;106842;1278;138784;-73
2023/01/25 08:28:44;;;;;;;15.60;8.40;;;;;;;0.75;100.00;100029.54;109101;1276;22458;-73
2023/01/25 08:31:15;;;;;;;16.10;8.50;;;;;;;0.75;100.00;100031.50;108158;1263;139319;-73
2023/01/25 08:33:44;;;;;;;14.80;8.60;;;;;;;0.73;99.92;100027.38;109446;1270;22412;-73
2023/01/25 08:36:17;;;;;;;14.90;8.60;;;;;;;0.71;99.93;100026.71;107072;1273;140569;-79
2023/01/25 08:38:51;;;;;;;14.60;8.70;;;;;;;0.70;99.99;100027.30;107407;1273;138188;-73
2023/01/25 08:41:18;;;;;;;14.80;7.80;;;;;;;0.69;99.71;100027.10;106982;1281;22539;-73
2023/01/25 08:43:46;;;;;;;13.50;7.80;;;;;;;0.66;99.72;100022.92;106504;1281;139511;-73
2023/01/25 08:46:15;;;;;;;15.20;7.70;;;;;;;0.62;99.63;100022.37;106705;1281;24097;-73
2023/01/25 08:48:42;;;;;;;16.30;9.30;;;;;;;0.60;99.74;100021.52;106539;1273;139607;-73
2023/01/25 08:51:14;;;;;;;12.80;8.10;;;;;;;0.61;99.99;100021.91;106655;1257;25415;-73
2023/01/25 08:53:41;;;;;;;18.60;9.30;;;;;;;0.63;100.00;100017.30;106711;1265;24399;-73
2023/01/25 08:56:11;;;;;;;19.70;9.40;;;;;;;0.64;100.00;100014.89;106422;1277;139351;-73
2023/01/25 08:58:39;;;;;;;;;;;;;;;0.68;100.00;100015.52;106684;1281;22795;-73
2023/01/25 09:01:08;;;;;;;19.10;9.10;;;;;;;0.72;100.00;100013.21;106471;1267;125543;-73
2023/01/25 09:03:39;;;;;;;15.80;8.90;;;;;;;0.75;100.00;100015.80;106662;1279;24269;-73
2023/01/25 09:06:08;;;;;;;14.90;7.40;;;;;;;0.81;100.00;100014.39;106707;1281;25350;-73
2023/01/25 09:08:36;;;;;;;15.10;8.60;;;;;;;0.83;99.96;100009.90;109063;1275;138829;-73
2023/01/25 09:11:05;;;;;;;14.80;9.00;;;;;;;0.87;99.92;100012.21;106834;1281;24940;-73
2023/01/25 09:13:32;;;;;;;16.60;7.50;;;;;;;0.93;100.00;100005.84;106889;1261;138363;-73
2023/01/25 09:16:02;;;;;;;15.80;9.10;;;;;;;0.95;99.51;100004.77;106686;1282;26556;-73
2023/01/25 09:18:30;;;;;;;19.10;10.10;;;;;;;0.97;99.45;100002.64;109690;1281;138972;-74
2023/01/25 09:20:58;;;;;;;19.00;10.10;;;;;;;1.01;99.82;99997.45;107995;1276;22546;-73
2023/01/25 09:23:25;;;;;;;17.60;9.90;;;;;;;1.10;100.00;99996.96;106640;1263;23044;-73
2023/01/25 09:25:57;;;;;;;18.30;9.60;;;;;;;1.19;100.00;99995.42;107657;1275;138352;-73
2023/01/25 09:28:25;;;;;;;18.80;10.00;;;;;;;1.25;99.62;99989.96;107642;1281;22535;-73
2023/01/25 09:30:56;;;;;;;18.40;9.80;;;;;;;1.29;99.41;99983.81;106465;1281;138353;-73
2023/01/25 09:33:34;;;;;;;18.60;9.20;;;;;;;1.36;99.27;99988.06;106575;1264;22688;-73
2023/01/25 09:36:01;;;;;;;20.90;10.70;;;;;;;1.41;99.48;99987.38;106711;1282;25240;-73
2023/01/25 09:38:28;;;;;;;16.90;10.10;;;;;;;1.46;99.04;99979.39;106435;1282;138226;-73
2023/01/25 09:41:17;;;;;;;19.00;10.80;;;;;;;1.49;99.37;99977.09;106662;1282;25525;-73
2023/01/25 09:44:04;;;;;;;18.40;9.90;;;;;;;1.58;99.73;99975.61;106807;1274;138403;-73
2023/01/25 09:46:39;;;;;;;17.50;10.20;;;;;;;1.64;99.36;99972.60;107735;1281;22531;-73
2023/01/25 09:49:15;;;;;;;20.00;9.70;;;;;;;1.70;99.35;99969.12;106466;1281;139845;-73
2023/01/25 09:52:03;;;;;;;17.30;9.70;;;;;;;1.74;98.90;99968.84;106734;1281;25408;-73
2023/01/25 09:54:36;;;;;;;20.60;9.70;;;;;;;1.77;98.82;99961.19;106948;1262;138734;-73
2023/01/25 09:57:03;;;;;;;16.70;10.70;;;;;;;1.80;98.90;99956.70;106608;1275;22558;-73
2023/01/25 09:59:31;;;;;;;18.30;9.00;;;;;;;1.85;98.82;99953.96;106599;1282;22653;-73
2023/01/25 10:02:04;;;;;;;18.70;10.50;;;;;;;1.89;98.49;99946.58;106319;1282;138033;-73
2023/01/25 10:04:43;;;;;;;21.20;11.20;;;;;;;1.95;98.59;99940.36;107409;1262;24395;-73
2023/01/25 10:07:53;;;;;;;22.60;11.10;;;;;;;2.01;98.45;99928.66;106453;1276;139540;-73
2023/01/25 10:10:34;;;;;;;19.00;11.10;;;;;;;2.09;98.36;99922.29;106020;1290;22555;-73
2023/01/25 10:13:02;;;;;;;22.20;10.90;;;;;;;2.17;98.31;99923.70;105954;1266;140570;-73
2023/01/25 10:15:38;;;;;;;18.50;10.70;;;;;;;2.21;98.19;99916.48;106283;1286;22537;-73
2023/01/25 10:18:33;;;;;;;19.30;10.00;;;;;;;2.27;98.01;99916.43;106387;1289;25494;-73
2023/01/25 10:21:06;;;;;;;16.20;10.20;;;;;;;2.32;97.58;99909.52;106186;1289;22546;-73
2023/01/25 10:24:18;;;;;;;18.60;11.40;;;;;;;2.36;96.92;99905.67;106147;1275;25375;-73
2023/01/25 10:26:54;;;;;;;19.20;11.10;;;;;;;2.41;96.57;99892.78;105582;1294;138301;-73
2023/01/25 10:29:23;;;;;;;14.90;9.00;;;;;;;2.46;96.40;99891.85;105609;1295;24434;-73
2023/01/25 10:31:52;;;;;;;;;;;;;;;2.52;96.09;99889.70;105444;1295;138268;-73
2023/01/25 10:34:23;;;;;;;16.30;9.50;;;;;;;2.54;95.80;99887.84;105652;1286;22547;-73
2023/01/25 10:36:54;;;;;;;15.20;9.60;;;;;;;2.54;95.15;99887.48;105500;1294;138990;-73
2023/01/25 10:39:21;;;;;;;16.90;9.90;;;;;;;2.56;95.36;99877.23;105800;1287;22648;-73
2023/01/25 10:42:34;;;;;;;15.10;9.60;;;;;;;2.59;95.16;99875.73;105714;1294;22567;-73
2023/01/25 10:45:14;;;;;;;15.90;9.00;;;;;;;2.61;94.87;99876.21;105430;1280;24219;-73
2023/01/25 10:48:02;;;;;;;15.60;8.50;;;;;;;2.60;94.66;99872.31;106128;1288;22550;-73
2023/01/25 10:50:41;;;;;;;13.60;8.60;;;;;;;2.60;94.04;99875.06;107094;1285;138184;-73
2023/01/25 10:53:34;;;;;;;17.40;8.70;;;;;;;2.59;94.01;99875.14;106218;1288;22948;-73
2023/01/25 10:56:10;;;;;;;14.70;8.70;;;;;;;2.56;93.86;99872.55;106138;1267;138089;-73
2023/01/25 10:58:46;;;;;;;16.70;8.70;;;;;;;2.53;93.56;99874.21;106608;1282;22543;-73
2023/01/25 11:01:32;;;;;;;14.80;8.80;;;;;;;2.50;93.86;99873.02;106673;1282;139005;-73
2023/01/25 11:04:00;;;;;;;14.10;9.40;;;;;;;2.48;93.92;99871.27;106661;1261;22584;-74
2023/01/25 11:06:36;;;;;;;15.80;9.70;;;;;;;2.47;94.12;99867.11;106679;1263;138159;-74
2023/01/25 11:09:21;;;;;;;17.80;10.10;;;;;;;2.46;94.13;99858.71;106588;1282;23629;-73
2023/01/25 11:11:59;;;;;;;18.50;11.50;;;;;;;2.47;94.02;99853.06;106640;1281;22549;-73
2023/01/25 11:14:30;;;;;;;14.30;10.00;;;;;;;2.46;93.90;99845.06;106459;1258;138572;-73
2023/01/25 11:16:59;;;;;;;17.20;10.00;;;;;;;2.44;93.73;99843.85;107569;1281;22570;-73
2023/01/25 11:19:38;;;;;;;16.60;10.60;;;;;;;2.44;93.67;99840.15;106753;1281;139725;-73
2023/01/25 11:22:27;;;;;;;19.10;10.30;;;;;;;2.43;93.39;99832.14;106599;1281;22567;-73
2023/01/25 11:24:54;;;;;;;18.90;10.90;;;;;;;2.41;93.19;99823.36;106522;1258;139600;-73